Time;durP1;ratioP1;P1;durP2;ratioP2;P2;SDS_P1;SDS_P2;PMS_P1;PMS_P2;Temp;Humidity;BMP_temperature;BMP_pressure;BME280_temperature;BME280_humidity;BME280_pressure;Samples;Min_cycle;Max_cycle;Signal;HPM_P1;HPM_P2
2021/12/02 00:01:14;;;;;;;5.10;0.77;;;;;;;5.30;47.73;97377.47;5125495;28;20125;-95
2021/12/02 00:03:41;;;;;;;3.50;0.73;;;;;;;1.07;56.25;97399.69;5124569;28;20035;-96
2021/12/02 00:06:10;;;;;;;7.32;0.70;;;;;;;8.07;48.85;97381.81;5116747;28;20027;-95
2021/12/02 00:08:35;;;;;;;4.10;0.68;;;;;;;3.68;53.41;97387.22;5116336;28;20020;-95
2021/12/02 00:11:01;;;;;;;4.47;0.73;;;;;;;3.11;56.66;97397.66;5117378;28;20039;-96
2021/12/02 00:13:29;;;;;;;5.40;0.90;;;;;;;3.64;56.32;97400.97;5118872;27;20029;-96
2021/12/02 00:16:05;;;;;;;6.38;0.80;;;;;;;3.72;56.05;97388.06;5118689;28;20028;-94
2021/12/02 00:21:36;;;;;;;3.47;0.77;;;;;;;3.85;55.60;97394.03;5112455;28;20052;-95
2021/12/02 00:24:08;;;;;;;5.18;0.85;;;;;;;4.22;54.16;97397.28;5115184;27;20492;-95
2021/12/02 00:26:36;;;;;;;5.82;0.95;;;;;;;4.12;54.43;97382.75;5120480;28;20043;-95
2021/12/02 00:29:05;;;;;;;7.38;1.00;;;;;;;4.03;54.52;97381.03;5120905;27;20073;-96
2021/12/02 00:31:33;;;;;;;5.68;0.95;;;;;;;4.46;53.08;97376.50;5118233;28;20078;-94
2021/12/02 00:34:03;;;;;;;3.90;0.65;;;;;;;4.13;53.89;97366.38;5112275;28;20574;-96
2021/12/02 00:36:33;;;;;;;5.43;0.90;;;;;;;4.23;53.66;97367.16;5122464;28;20027;-95
2021/12/02 00:39:03;;;;;;;4.63;1.05;;;;;;;4.22;53.89;97352.56;5126097;28;20090;-95
2021/12/02 00:41:30;;;;;;;5.05;0.82;;;;;;;4.01;53.58;97346.66;5117799;28;20045;-96
2021/12/02 00:43:57;;;;;;;3.17;0.70;;;;;;;4.83;50.42;97340.91;5120502;27;20039;-96
2021/12/02 00:46:24;;;;;;;10.90;1.23;;;;;;;4.70;51.37;97345.31;5123293;28;20536;-95
2021/12/02 00:48:50;;;;;;;6.00;0.90;;;;;;;4.74;51.02;97365.06;5121074;28;20039;-94
2021/12/02 00:51:17;;;;;;;2.22;0.63;;;;;;;4.28;52.45;97368.00;5125430;28;20054;-95
2021/12/02 00:53:46;;;;;;;6.13;0.80;;;;;;;4.67;51.74;97352.25;5120306;28;20455;-96
2021/12/02 00:56:16;;;;;;;4.82;0.80;;;;;;;5.14;48.75;97376.78;5121762;28;20027;-96
2021/12/02 00:58:46;;;;;;;5.10;0.80;;;;;;;5.00;51.43;97361.41;5118357;27;20072;-96
2021/12/02 01:01:12;;;;;;;6.38;0.70;;;;;;;4.72;51.55;97356.50;5120792;28;20028;-95
2021/12/02 01:03:38;;;;;;;4.97;0.60;;;;;;;8.52;45.21;97347.97;5107677;28;20027;-96
2021/12/02 01:06:06;;;;;;;5.22;0.77;;;;;;;8.98;40.93;97351.19;5110977;28;20039;-95
2021/12/02 01:08:35;;;;;;;3.30;0.75;;;;;;;8.24;42.61;97362.44;5114637;28;20020;-95
2021/12/02 01:11:02;;;;;;;7.72;1.10;;;;;;;7.64;52.39;97360.22;5107851;28;20032;-95
2021/12/02 01:13:27;;;;;;;4.80;0.85;;;;;;;8.44;41.20;97354.19;5101404;28;20024;-95
2021/12/02 01:15:56;;;;;;;5.70;0.80;;;;;;;9.20;40.30;97354.09;5107135;28;20059;-95
2021/12/02 01:18:23;;;;;;;6.80;1.10;;;;;;;9.33;40.31;97359.81;5105606;28;20393;-95
2021/12/02 01:20:52;;;;;;;3.75;0.50;;;;;;;8.82;41.34;97373.25;5105287;28;20035;-96
2021/12/02 01:23:20;;;;;;;4.47;0.65;;;;;;;8.17;42.26;97372.13;5115600;28;20045;-96
2021/12/02 01:25:49;;;;;;;4.88;0.80;;;;;;;8.50;41.55;97377.47;5090980;22;20079;-94
2021/12/02 01:28:17;;;;;;;5.18;0.95;;;;;;;8.90;41.15;97368.72;5082359;28;20058;-94
2021/12/02 01:30:44;;;;;;;6.20;1.30;;;;;;;7.50;42.94;97364.81;5084186;28;20024;-94
2021/12/02 01:33:16;;;;;;;3.92;0.77;;;;;;;7.71;43.73;97375.66;5085510;28;20107;-94
2021/12/02 01:35:47;;;;;;;8.82;1.10;;;;;;;4.71;52.74;97400.41;5075944;28;20027;-95
2021/12/02 01:38:13;;;;;;;4.55;0.70;;;;;;;3.97;54.59;97406.88;5082675;28;20031;-95
2021/12/02 01:40:39;;;;;;;3.70;0.63;;;;;;;4.21;53.99;97417.94;5088394;28;20027;-96
2021/12/02 01:43:07;;;;;;;3.80;0.65;;;;;;;4.36;53.28;97407.53;5079187;28;20036;-95
2021/12/02 01:45:33;;;;;;;4.00;0.73;;;;;;;4.41;52.84;97407.50;5084644;28;20020;-95
2021/12/02 01:48:02;;;;;;;2.55;0.60;;;;;;;4.11;55.43;97409.41;5084773;28;20176;-95
2021/12/02 01:50:28;;;;;;;3.95;0.80;;;;;;;4.83;51.95;97409.78;5081362;28;20032;-94
2021/12/02 01:52:57;;;;;;;4.22;0.85;;;;;;;5.19;49.36;97406.03;5078588;28;20036;-95
2021/12/02 01:55:24;;;;;;;5.20;1.08;;;;;;;5.47;48.39;97398.00;5086756;28;20106;-95
2021/12/02 01:58:02;;;;;;;2.75;0.75;;;;;;;5.25;48.90;97405.13;5079611;28;20411;-94
2021/12/02 02:00:44;;;;;;;4.40;0.63;;;;;;;8.42;41.73;97419.19;5097761;28;20031;-95
2021/12/02 02:03:15;;;;;;;3.80;0.77;;;;;;;5.59;48.53;97423.72;5082559;28;20029;-95
2021/12/02 02:05:42;;;;;;;3.25;0.70;;;;;;;8.38;45.46;97409.75;5076825;28;20031;-96
2021/12/02 02:08:21;;;;;;;6.80;0.77;;;;;;;5.01;49.86;97422.56;5079214;28;20162;-96
2021/12/02 02:10:49;;;;;;;3.17;0.98;;;;;;;5.64;48.35;97429.69;5077966;28;20042;-96
2021/12/02 02:13:16;;;;;;;3.42;0.75;;;;;;;5.60;48.93;97414.25;5078392;28;20024;-95
2021/12/02 02:15:46;;;;;;;4.40;0.60;;;;;;;5.94;48.25;97416.44;5077115;28;20124;-95
2021/12/02 02:18:20;;;;;;;2.88;0.70;;;;;;;5.78;47.22;97421.78;5074891;28;20096;-94
2021/12/02 02:21:03;;;;;;;3.45;0.65;;;;;;;6.44;47.47;97427.91;5085875;28;20633;-95
2021/12/02 02:23:36;;;;;;;5.07;0.68;;;;;;;4.82;50.79;97428.75;5077521;28;20040;-95
2021/12/02 02:26:02;;;;;;;7.45;0.93;;;;;;;5.02;50.61;97421.69;5076000;28;20056;-95
2021/12/02 02:28:28;;;;;;;7.57;0.82;;;;;;;5.02;50.72;97428.59;5093535;28;20028;-94
2021/12/02 02:30:54;;;;;;;2.90;0.70;;;;;;;4.79;51.41;97435.63;5079047;28;20040;-94
2021/12/02 02:33:21;;;;;;;2.55;0.47;;;;;;;5.08;51.98;97410.44;5082696;28;20035;-95
2021/12/02 02:35:47;;;;;;;5.20;1.40;;;;;;;4.85;52.29;97420.97;5078776;28;20052;-95
2021/12/02 02:38:16;;;;;;;8.00;0.90;;;;;;;5.34;50.23;97420.53;5085825;28;20103;-94
2021/12/02 02:40:45;;;;;;;7.68;1.15;;;;;;;6.31;47.59;97419.44;5084686;28;20047;-95
2021/12/02 02:43:20;;;;;;;4.97;0.88;;;;;;;10.55;38.81;97405.03;5082615;28;20105;-95
2021/12/02 02:45:46;;;;;;;4.40;1.23;;;;;;;7.62;39.73;97403.50;5077583;28;20222;-95
2021/12/02 02:48:11;;;;;;;4.20;0.80;;;;;;;5.07;49.84;97403.56;5081897;28;20023;-94
2021/12/02 02:50:41;;;;;;;3.55;0.70;;;;;;;5.46;50.12;97409.22;5074659;28;20100;-96
2021/12/02 02:53:15;;;;;;;7.15;0.70;;;;;;;6.22;47.68;97403.16;5079818;28;20028;-94
2021/12/02 02:55:43;;;;;;;3.70;0.93;;;;;;;6.69;47.05;97404.22;5079560;28;20434;-95
2021/12/02 03:04:07;;;;;;;6.63;0.98;;;;;;;9.42;38.33;97376.09;5067844;28;20132;-95
2021/12/02 03:06:49;;;;;;;4.68;0.70;;;;;;;10.23;36.63;97373.78;5081837;28;20059;-95
2021/12/02 03:12:10;;;;;;;1.80;0.50;;;;;;;5.17;48.06;97389.69;5081957;28;20024;-94
2021/12/02 03:17:09;;;;;;;4.00;0.60;;;;;;;5.15;49.73;97400.91;5081402;28;20396;-95
2021/12/02 03:19:44;;;;;;;4.32;0.40;;;;;;;5.77;47.28;97399.38;5064200;28;20028;-96
2021/12/02 03:22:11;;;;;;;12.73;1.15;;;;;;;6.10;47.05;97399.88;5084670;28;20035;-95
2021/12/02 03:24:37;;;;;;;1.60;0.43;;;;;;;5.58;47.91;97400.47;5077035;28;20063;-95
2021/12/02 03:27:03;;;;;;;3.75;0.68;;;;;;;5.53;48.38;97397.94;5069459;28;20056;-94
2021/12/02 03:29:28;;;;;;;7.13;0.75;;;;;;;5.17;49.24;97399.16;5080509;28;20020;-94
2021/12/02 03:31:59;;;;;;;5.55;1.00;;;;;;;4.92;49.66;97391.63;5081321;28;20043;-95
2021/12/02 03:34:24;;;;;;;5.13;0.68;;;;;;;5.28;50.04;97403.34;5094932;28;20070;-95
2021/12/02 03:36:51;;;;;;;3.05;0.63;;;;;;;5.10;50.61;97398.38;5093083;28;20028;-94
2021/12/02 03:39:16;;;;;;;3.28;0.55;;;;;;;6.87;45.45;97390.13;5086028;28;20039;-96
2021/12/02 03:41:44;;;;;;;6.63;0.90;;;;;;;1.56;62.25;97411.97;5080593;28;20431;-96
2021/12/02 03:44:09;;;;;;;5.70;0.73;;;;;;;1.94;62.40;97413.84;5082711;28;20560;-94
2021/12/02 03:46:41;;;;;;;4.10;0.60;;;;;;;1.39;63.39;97411.88;5085580;28;20039;-96
2021/12/02 03:49:07;;;;;;;4.18;0.60;;;;;;;1.18;65.47;97415.19;5078719;28;20127;-95
2021/12/02 03:51:33;;;;;;;3.90;0.60;;;;;;;5.44;51.30;97408.38;5084795;28;20115;-94
2021/12/02 03:53:58;;;;;;;6.25;0.55;;;;;;;5.02;51.75;97416.50;5081731;28;20027;-95
2021/12/02 03:56:24;;;;;;;1.80;0.40;;;;;;;4.83;52.09;97418.41;5085041;28;20038;-96
2021/12/02 03:58:54;;;;;;;13.07;0.98;;;;;;;4.22;54.02;97404.19;5082994;28;20028;-96
2021/12/02 04:01:21;;;;;;;3.47;0.50;;;;;;;4.04;54.97;97418.88;5089905;28;20029;-96
2021/12/02 04:03:47;;;;;;;4.93;0.60;;;;;;;5.91;51.47;97409.56;5092060;28;20035;-94
2021/12/02 04:06:17;;;;;;;3.53;0.98;;;;;;;4.06;55.00;97406.84;5090706;28;20099;-96
2021/12/02 04:08:56;;;;;;;5.55;0.60;;;;;;;4.36;54.80;97428.19;5082643;28;20074;-96
2021/12/02 04:11:51;;;;;;;5.78;0.70;;;;;;;4.16;55.23;97436.03;5088169;28;20027;-96
2021/12/02 04:16:58;;;;;;;1.77;0.40;;;;;;;4.05;55.80;97423.19;5087577;28;20081;-96
2021/12/02 04:19:24;;;;;;;5.28;0.57;;;;;;;3.96;56.17;97423.22;5091036;28;20086;-95
2021/12/02 04:21:58;;;;;;;5.88;0.85;;;;;;;3.81;56.67;97428.44;5096869;28;20028;-96
2021/12/02 04:24:25;;;;;;;4.25;0.70;;;;;;;3.88;57.43;97451.63;5070480;28;20158;-95
2021/12/02 04:26:53;;;;;;;1.92;0.50;;;;;;;3.77;57.56;97437.88;5085901;28;20028;-96
2021/12/02 04:29:18;;;;;;;3.03;0.63;;;;;;;3.84;57.30;97438.72;5092415;28;20088;-96
2021/12/02 04:31:59;;;;;;;6.03;0.80;;;;;;;1.57;62.67;97456.50;5083738;28;20100;-95
2021/12/02 04:34:25;;;;;;;3.25;0.80;;;;;;;1.24;67.47;97474.31;5084472;28;20028;-94
2021/12/02 04:36:52;;;;;;;3.78;0.50;;;;;;;6.51;50.12;97435.59;5097506;28;20523;-96
2021/12/02 04:39:18;;;;;;;5.57;0.98;;;;;;;6.79;48.24;97460.22;5087065;28;20473;-96
2021/12/02 04:41:43;;;;;;;5.00;0.60;;;;;;;4.54;53.19;97454.75;5096722;28;20040;-96
2021/12/02 04:44:18;;;;;;;5.28;0.60;;;;;;;5.68;54.26;97451.22;5095845;28;20081;-96
2021/12/02 04:46:47;;;;;;;3.92;0.70;;;;;;;4.14;56.02;97453.22;5089870;28;20036;-96
2021/12/02 04:49:12;;;;;;;3.15;0.70;;;;;;;4.23;55.52;97452.31;5086480;28;20053;-96
2021/12/02 04:51:38;;;;;;;5.07;0.63;;;;;;;4.29;54.96;97439.41;5087441;28;20027;-94
2021/12/02 04:54:06;;;;;;;7.00;0.90;;;;;;;3.72;55.42;97448.22;5086237;28;20365;-95
2021/12/02 04:56:40;;;;;;;2.78;0.57;;;;;;;4.02;54.28;97461.03;5086120;28;20020;-95
2021/12/02 04:59:06;;;;;;;5.15;0.60;;;;;;;7.94;43.63;97424.53;5087800;28;20526;-94
2021/12/02 05:01:32;;;;;;;2.72;0.52;;;;;;;8.93;41.53;97432.78;5081975;28;20672;-96
2021/12/02 05:03:57;;;;;;;2.67;0.52;;;;;;;8.28;41.31;97442.88;5075553;28;20357;-96
2021/12/02 05:06:25;;;;;;;2.38;0.50;;;;;;;8.42;40.52;97444.28;5088793;28;20036;-96
2021/12/02 05:08:50;;;;;;;4.22;0.68;;;;;;;8.34;40.31;97440.13;5079762;28;20027;-95
2021/12/02 05:11:16;;;;;;;3.38;0.70;;;;;;;3.74;51.54;97446.53;5089849;28;20035;-95
2021/12/02 05:13:41;;;;;;;4.20;0.40;;;;;;;3.82;52.44;97443.06;5084983;28;20056;-95
2021/12/02 05:16:07;;;;;;;3.53;0.80;;;;;;;3.58;53.56;97430.22;5085958;28;20039;-94
2021/12/02 05:18:32;;;;;;;3.20;0.60;;;;;;;8.11;42.33;97419.81;5077866;28;20024;-96
2021/12/02 05:21:00;;;;;;;3.25;0.60;;;;;;;3.73;51.99;97428.44;5083150;28;20098;-96
2021/12/02 05:23:26;;;;;;;3.72;0.60;;;;;;;3.82;52.84;97449.06;5080727;28;20040;-96
2021/12/02 05:25:52;;;;;;;1.95;0.65;;;;;;;8.54;42.21;97436.28;5079988;28;20032;-95
2021/12/02 05:28:18;;;;;;;4.53;0.60;;;;;;;9.70;38.45;97439.53;5083718;28;20028;-95
2021/12/02 05:30:46;;;;;;;2.67;0.50;;;;;;;9.77;37.76;97461.03;5084766;28;20112;-95
2021/12/02 05:33:12;;;;;;;2.25;0.47;;;;;;;3.53;49.86;97452.56;5079909;28;20035;-95
2021/12/02 05:35:37;;;;;;;3.50;0.60;;;;;;;3.62;53.23;97454.28;5086012;28;20028;-95
2021/12/02 05:38:03;;;;;;;1.77;0.40;;;;;;;3.65;53.10;97446.53;5079345;28;20066;-96
2021/12/02 05:40:29;;;;;;;2.30;0.50;;;;;;;3.70;52.92;97464.56;5087808;28;20228;-95
2021/12/02 05:42:55;;;;;;;2.50;0.50;;;;;;;10.30;36.13;97450.03;5075782;28;20698;-95
2021/12/02 05:45:20;;;;;;;2.03;0.57;;;;;;;9.58;39.84;97452.84;5084339;28;20038;-95
2021/12/02 05:47:46;;;;;;;1.83;0.40;;;;;;;8.66;38.94;97455.94;5080540;28;20024;-95
2021/12/02 05:50:11;;;;;;;3.20;0.38;;;;;;;10.03;36.80;97451.66;5087600;28;20051;-96
2021/12/02 05:52:37;;;;;;;3.25;0.40;;;;;;;3.94;49.16;97466.22;5078509;28;20036;-96
2021/12/02 05:55:03;;;;;;;3.97;0.45;;;;;;;9.15;37.35;97436.56;5083109;28;20021;-95
2021/12/02 05:57:28;;;;;;;5.63;0.85;;;;;;;1.08;55.78;97480.16;5092092;28;20043;-95
2021/12/02 05:59:58;;;;;;;1.95;0.40;;;;;;;0.71;61.78;97487.53;5084810;28;20025;-96
2021/12/02 06:02:27;;;;;;;1.83;0.40;;;;;;;0.83;62.65;97516.72;5078995;28;20036;-96
2021/12/02 06:05:02;;;;;;;2.22;0.60;;;;;;;0.90;61.89;97497.13;5096505;28;20070;-95
2021/12/02 06:07:35;;;;;;;3.03;0.30;;;;;;;0.91;62.39;97488.56;5090004;28;20025;-96
2021/12/02 06:10:01;;;;;;;3.13;0.50;;;;;;;0.22;65.21;97495.56;5085338;28;20028;-96
2021/12/02 06:12:27;;;;;;;2.38;0.50;;;;;;;0.34;65.17;97508.53;5086951;28;20830;-95
2021/12/02 06:14:59;;;;;;;2.05;0.30;;;;;;;0.88;63.77;97503.97;5085385;28;20044;-95
2021/12/02 06:17:28;;;;;;;6.50;0.63;;;;;;;1.04;63.19;97507.50;5095895;28;20039;-95
2021/12/02 06:19:53;;;;;;;4.65;0.60;;;;;;;0.44;64.71;97506.94;5092325;28;20024;-96
2021/12/02 06:22:19;;;;;;;2.10;0.30;;;;;;;1.03;63.96;97516.06;5090843;28;20046;-94
2021/12/02 06:24:54;;;;;;;2.38;0.43;;;;;;;1.00;63.37;97516.91;5096737;28;20050;-95
2021/12/02 06:27:20;;;;;;;2.90;0.40;;;;;;;1.53;61.65;97536.16;5086898;28;20036;-96
2021/12/02 06:29:46;;;;;;;3.00;0.50;;;;;;;1.28;61.85;97523.97;5094226;28;20035;-95
2021/12/02 06:32:14;;;;;;;4.07;0.55;;;;;;;1.16;62.62;97532.44;5087381;28;20024;-96
2021/12/02 06:34:40;;;;;;;2.25;0.52;;;;;;;1.07;62.89;97534.91;5084450;28;20032;-95
2021/12/02 06:37:09;;;;;;;4.90;0.55;;;;;;;0.39;62.97;97541.91;5082303;28;20102;-93
2021/12/02 06:39:34;;;;;;;3.45;0.60;;;;;;;1.31;61.89;97559.97;5070523;28;20067;-95
2021/12/02 06:42:01;;;;;;;2.03;0.40;;;;;;;1.45;61.54;97548.09;5090172;28;20048;-94
2021/12/02 06:44:33;;;;;;;2.13;0.32;;;;;;;1.11;61.72;97537.50;5091674;28;20035;-95
2021/12/02 06:46:58;;;;;;;2.55;0.43;;;;;;;-0.22;67.30;97548.00;5098328;28;20033;-96
2021/12/02 06:49:27;;;;;;;3.05;0.47;;;;;;;0.93;64.29;97556.19;5094958;28;20024;-96
2021/12/02 06:54:28;;;;;;;4.68;0.88;;;;;;;1.64;61.44;97543.06;5056885;28;20053;-95
2021/12/02 06:56:53;;;;;;;1.70;0.43;;;;;;;1.84;60.64;97541.50;5054508;28;20029;-94
2021/12/02 06:59:19;;;;;;;3.80;0.57;;;;;;;1.82;60.31;97552.59;5054472;28;20020;-93
2021/12/02 07:01:46;;;;;;;4.95;0.68;;;;;;;1.83;60.78;97569.75;5057495;28;20044;-93
2021/12/02 07:04:14;;;;;;;6.03;0.70;;;;;;;2.05;59.98;97556.16;5053322;28;20033;-95
2021/12/02 07:06:40;;;;;;;5.03;0.70;;;;;;;-0.11;67.15;97568.63;5058311;28;20028;-96
2021/12/02 07:09:08;;;;;;;3.42;0.52;;;;;;;-0.24;69.19;97565.03;5054492;28;20111;-94
2021/12/02 07:11:34;;;;;;;6.22;0.60;;;;;;;-0.82;70.70;97576.09;5058156;28;20041;-94
2021/12/02 07:14:03;;;;;;;3.63;0.50;;;;;;;-0.39;70.28;97583.59;5059542;28;20665;-94
2021/12/02 07:16:29;;;;;;;2.92;0.63;;;;;;;-0.31;70.54;97558.97;5058199;28;20024;-95
2021/12/02 07:18:57;;;;;;;2.28;0.40;;;;;;;-0.85;72.07;97573.47;5059608;28;20020;-93
2021/12/02 07:21:24;;;;;;;4.55;0.47;;;;;;;3.87;53.56;97560.81;5060149;28;20032;-94
2021/12/02 07:23:54;;;;;;;3.50;0.43;;;;;;;2.14;61.47;97580.22;5061028;28;20025;-95
2021/12/02 07:26:20;;;;;;;7.18;0.85;;;;;;;2.37;59.65;97581.19;5056782;28;20059;-94
2021/12/02 07:28:47;;;;;;;3.90;0.70;;;;;;;2.53;58.93;97579.56;5058626;28;20032;-94
2021/12/02 07:31:13;;;;;;;5.22;0.73;;;;;;;0.30;65.60;97586.28;5052909;28;20043;-95
2021/12/02 07:33:42;;;;;;;4.78;0.68;;;;;;;2.32;60.12;97620.63;5068594;28;20048;-93
2021/12/02 07:36:08;;;;;;;2.63;0.70;;;;;;;2.53;59.50;97599.28;5049331;28;20226;-94
2021/12/02 07:38:38;;;;;;;4.07;0.50;;;;;;;2.36;60.07;97619.78;5050163;28;20730;-94
2021/12/02 07:41:04;;;;;;;3.17;0.50;;;;;;;2.43;61.84;97610.38;5053389;28;20119;-94
2021/12/02 07:43:36;;;;;;;5.93;0.90;;;;;;;2.52;60.74;97636.16;5060910;28;20068;-94
2021/12/02 07:46:03;;;;;;;3.55;0.82;;;;;;;2.65;60.12;97630.22;5050502;28;20476;-94
2021/12/02 07:48:29;;;;;;;5.20;0.60;;;;;;;1.82;62.03;97646.03;5058084;28;20032;-92
2021/12/02 07:51:02;;;;;;;3.60;0.60;;;;;;;1.95;62.32;97649.56;5056157;28;20024;-94
2021/12/02 07:53:28;;;;;;;5.23;0.67;;;;;;;1.83;62.07;97654.59;5059050;28;20060;-95
2021/12/02 07:55:55;;;;;;;4.22;0.90;;;;;;;2.29;63.29;97657.47;5056808;28;20033;-94
2021/12/02 07:58:23;;;;;;;5.05;0.60;;;;;;;2.15;61.81;97659.13;5057280;28;20032;-95
2021/12/02 08:00:50;;;;;;;3.55;0.52;;;;;;;2.01;62.55;97654.72;5055115;28;20085;-94
2021/12/02 08:03:16;;;;;;;5.30;0.93;;;;;;;2.13;62.98;97671.09;5053345;28;20486;-95
2021/12/02 08:05:42;;;;;;;6.85;1.10;;;;;;;2.37;61.43;97671.25;5054635;28;20114;-96
2021/12/02 08:08:13;;;;;;;1.77;0.45;;;;;;;2.61;61.33;97681.69;5054758;28;20143;-94
2021/12/02 08:10:38;;;;;;;4.45;0.82;;;;;;;3.50;56.61;97673.41;5057624;28;20653;-92
2021/12/02 08:13:07;;;;;;;3.13;0.60;;;;;;;2.33;61.36;97689.25;5061561;28;20032;-94
2021/12/02 08:15:33;;;;;;;4.68;0.88;;;;;;;0.07;69.00;97709.00;5056943;28;20120;-93
2021/12/02 08:17:59;;;;;;;3.80;0.88;;;;;;;-0.70;74.08;97714.56;5058988;28;20052;-95
2021/12/02 08:20:31;;;;;;;2.70;0.63;;;;;;;-0.38;74.69;97727.06;5067195;28;20043;-95
2021/12/02 08:22:58;;;;;;;1.60;0.40;;;;;;;2.39;65.17;97715.00;5066643;28;20338;-96
2021/12/02 08:25:28;;;;;;;5.88;0.88;;;;;;;2.79;61.58;97728.09;5058230;28;20494;-95
2021/12/02 08:27:55;;;;;;;7.60;0.93;;;;;;;2.39;62.42;97733.00;5063182;28;20032;-96
2021/12/02 08:30:24;;;;;;;3.40;0.60;;;;;;;2.79;61.66;97722.97;5061175;28;20078;-95
2021/12/02 08:32:50;;;;;;;9.27;1.10;;;;;;;2.78;61.35;97725.53;5060040;28;20027;-96
2021/12/02 08:35:17;;;;;;;4.60;0.80;;;;;;;2.63;61.00;97727.19;5060500;28;20496;-95
2021/12/02 08:37:45;;;;;;;3.70;0.68;;;;;;;2.89;60.31;97757.34;5064852;28;20081;-95
2021/12/02 08:40:22;;;;;;;4.82;1.25;;;;;;;3.00;60.67;97729.06;5056937;28;20643;-94
2021/12/02 08:42:48;;;;;;;4.70;0.77;;;;;;;2.99;60.79;97737.66;5056284;28;21032;-95
2021/12/02 08:45:15;;;;;;;4.05;0.60;;;;;;;2.81;60.96;97747.03;5055340;28;20058;-96
2021/12/02 08:47:44;;;;;;;5.10;0.68;;;;;;;2.97;60.66;97729.91;5063299;28;20050;-96
2021/12/02 08:50:24;;;;;;;3.00;0.70;;;;;;;2.84;61.11;97735.84;5057658;28;20028;-96
2021/12/02 08:53:16;;;;;;;8.63;1.20;;;;;;;2.33;61.68;97728.69;5061209;28;20116;-96
2021/12/02 08:55:46;;;;;;;5.18;0.90;;;;;;;2.59;61.94;97742.56;5058592;28;20040;-96
2021/12/02 08:58:12;;;;;;;6.55;1.13;;;;;;;2.63;61.84;97740.06;5060985;28;20028;-96
2021/12/02 09:00:40;;;;;;;5.40;1.10;;;;;;;2.63;61.69;97737.47;5057610;28;20017;-95
2021/12/02 09:03:19;;;;;;;6.13;0.90;;;;;;;2.64;61.59;97740.91;5056882;28;20024;-96
2021/12/02 09:05:45;;;;;;;5.18;0.73;;;;;;;2.75;61.35;97740.97;5058638;28;20048;-96
2021/12/02 09:11:51;;;;;;;8.90;1.40;;;;;;;3.17;60.31;97734.28;5067102;28;20025;-95
2021/12/02 09:14:24;;;;;;;5.28;0.80;;;;;;;3.13;60.51;97720.56;5064325;28;20033;-96
2021/12/02 09:17:29;;;;;;;;;;;;;;;2.72;61.50;97739.22;5066380;28;20028;-96
2021/12/02 09:20:13;;;;;;;4.63;0.98;;;;;;;2.70;61.66;97721.22;5050751;28;19975;-96
2021/12/02 09:23:02;;;;;;;9.45;1.42;;;;;;;2.61;62.73;97716.00;5074857;28;20470;-95
2021/12/02 09:25:41;;;;;;;7.60;1.13;;;;;;;2.65;62.52;97722.88;5061495;28;20037;-95
2021/12/02 09:28:07;;;;;;;7.80;0.90;;;;;;;2.67;62.04;97722.88;5064876;28;20038;-96
2021/12/02 09:30:34;;;;;;;3.72;0.80;;;;;;;2.62;61.82;97730.59;5065256;28;20036;-95
2021/12/02 09:33:03;;;;;;;5.60;0.80;;;;;;;3.20;61.02;97731.72;5064134;28;20040;-94
2021/12/02 09:35:51;;;;;;;5.30;1.00;;;;;;;3.05;60.49;97743.69;5060414;28;20056;-96
2021/12/02 09:38:17;;;;;;;6.13;1.00;;;;;;;0.61;69.70;97754.28;5051763;28;20028;-95
2021/12/02 09:40:52;;;;;;;7.60;1.10;;;;;;;0.47;72.44;97768.59;5063649;28;20077;-95
2021/12/02 09:43:34;;;;;;;7.68;1.13;;;;;;;0.87;71.17;97764.03;5064200;28;20523;-96
2021/12/02 09:46:01;;;;;;;8.18;1.20;;;;;;;1.09;70.20;97772.03;5043245;28;20052;-96
2021/12/02 09:48:35;;;;;;;5.40;1.05;;;;;;;1.08;70.43;97762.59;5057377;28;20044;-96
2021/12/02 09:51:21;;;;;;;7.75;1.13;;;;;;;0.91;70.45;97770.94;5056751;28;20524;-95
2021/12/02 10:02:07;;;;;;;7.10;1.30;;;;;;;0.77;70.72;97793.84;5062560;28;20044;-95
2021/12/02 10:04:37;;;;;;;7.67;1.13;;;;;;;0.67;71.36;97805.69;5057255;28;20032;-96
2021/12/02 10:07:48;;;;;;;6.75;1.08;;;;;;;0.74;69.97;97803.19;5059667;28;20035;-95
2021/12/02 10:16:05;;;;;;;8.48;1.58;;;;;;;0.82;70.92;97834.97;5053989;28;20447;-95
2021/12/02 10:18:38;;;;;;;11.15;1.92;;;;;;;0.98;67.94;97839.50;5055452;28;20056;-96
2021/12/02 10:21:26;;;;;;;9.13;1.30;;;;;;;0.89;71.10;97844.50;5069666;28;20055;-94
2021/12/02 10:24:00;;;;;;;5.75;1.20;;;;;;;0.95;70.18;97849.72;5054097;28;20045;-93
2021/12/02 10:26:32;;;;;;;14.07;1.40;;;;;;;5.87;48.85;97833.97;5054960;28;20039;-94
2021/12/02 10:29:25;;;;;;;4.07;0.82;;;;;;;5.00;53.58;97838.59;5050471;28;20035;-94
2021/12/02 10:32:21;;;;;;;6.45;0.98;;;;;;;5.18;51.98;97848.00;5053918;28;20049;-94
2021/12/02 10:35:05;;;;;;;10.10;1.30;;;;;;;6.25;50.42;97832.91;5052913;28;20045;-95
2021/12/02 10:37:39;;;;;;;11.40;1.67;;;;;;;8.24;45.74;97823.03;5051315;28;20485;-95
2021/12/02 10:40:10;;;;;;;13.85;1.83;;;;;;;5.61;51.47;97845.31;5052471;28;20054;-95
2021/12/02 10:42:42;;;;;;;11.23;1.65;;;;;;;5.87;50.33;97844.31;5048624;28;20132;-95
2021/12/02 10:45:41;;;;;;;7.40;1.25;;;;;;;5.75;51.20;97835.75;5053644;28;20044;-94
2021/12/02 10:48:07;;;;;;;9.65;1.80;;;;;;;6.18;50.75;97839.00;5029408;28;20512;-95
2021/12/02 10:50:41;;;;;;;9.80;1.20;;;;;;;5.84;51.63;97840.00;5053243;28;20039;-94
2021/12/02 10:53:09;;;;;;;10.80;1.52;;;;;;;6.91;50.39;97852.28;5053968;28;20426;-93
2021/12/02 10:55:35;;;;;;;9.13;1.30;;;;;;;5.83;49.91;97846.03;5054401;28;20041;-93
2021/12/02 10:58:04;;;;;;;9.93;1.40;;;;;;;6.18;49.51;97849.34;5052307;28;20037;-94
2021/12/02 11:00:41;;;;;;;9.10;1.33;;;;;;;5.82;48.91;97850.38;5057308;28;20028;-94
2021/12/02 11:03:10;;;;;;;7.47;1.20;;;;;;;5.97;49.16;97854.66;5049776;28;20120;-95
2021/12/02 11:05:45;;;;;;;7.18;1.10;;;;;;;6.02;49.49;97836.50;5050637;28;20039;-93
2021/12/02 11:08:12;;;;;;;11.90;1.55;;;;;;;5.53;48.95;97847.06;5053034;28;20170;-95
2021/12/02 11:10:50;;;;;;;11.23;2.03;;;;;;;6.23;48.54;97835.50;5055593;28;20125;-95
2021/12/02 11:13:28;;;;;;;12.00;1.63;;;;;;;6.42;47.35;97838.00;5052656;28;20036;-94
2021/12/02 11:15:54;;;;;;;9.80;1.15;;;;;;;6.96;46.09;97842.72;5054921;28;20078;-95
2021/12/02 11:22:10;;;;;;;9.98;1.25;;;;;;;6.52;47.42;97833.59;5055585;28;20579;-95
2021/12/02 11:24:39;;;;;;;6.50;1.17;;;;;;;6.12;48.15;97842.47;5052980;28;20041;-95
2021/12/02 11:27:18;;;;;;;7.60;1.30;;;;;;;6.03;47.80;97834.78;5051902;28;20074;-95
2021/12/02 11:30:06;;;;;;;8.02;1.40;;;;;;;6.07;46.92;97854.59;5055236;28;20110;-95
2021/12/02 11:32:34;;;;;;;44.95;4.68;;;;;;;5.97;47.73;97843.38;5053557;28;20039;-96
2021/12/02 11:35:21;;;;;;;10.88;1.30;;;;;;;6.25;47.46;97853.63;5052865;28;20028;-93
2021/12/02 11:37:53;;;;;;;11.90;1.58;;;;;;;10.61;38.69;97821.13;5052432;28;20078;-94
2021/12/02 11:40:28;;;;;;;10.48;1.40;;;;;;;6.11;45.70;97846.81;5063623;28;20025;-96
2021/12/02 11:42:55;;;;;;;9.43;1.80;;;;;;;6.52;45.98;97834.44;5054554;28;20028;-95
2021/12/02 11:45:24;;;;;;;5.88;1.10;;;;;;;5.84;46.03;97845.19;5056448;28;20025;-94
2021/12/02 11:47:54;;;;;;;8.25;1.20;;;;;;;6.45;45.25;97825.84;5053853;28;20067;-94
2021/12/02 11:50:25;;;;;;;7.30;1.27;;;;;;;6.23;45.26;97826.91;5052471;28;20094;-94
2021/12/02 11:52:53;;;;;;;7.07;1.10;;;;;;;5.74;46.46;97822.81;5057055;28;20520;-95
2021/12/02 11:55:34;;;;;;;6.65;1.30;;;;;;;10.06;40.04;97808.44;5056664;28;20040;-94
2021/12/02 11:58:03;;;;;;;9.90;1.30;;;;;;;5.99;44.51;97823.59;5053482;28;20446;-95
2021/12/02 12:00:34;;;;;;;8.18;1.38;;;;;;;6.36;44.85;97807.81;5057978;28;20033;-93
2021/12/02 12:03:05;;;;;;;7.47;1.30;;;;;;;5.42;46.08;97832.44;5060653;28;20056;-95
2021/12/02 12:05:53;;;;;;;8.88;1.02;;;;;;;6.25;45.14;97818.25;5060825;28;20032;-94
2021/12/02 12:08:51;;;;;;;7.50;1.00;;;;;;;6.38;44.73;97831.97;5062093;28;20039;-95
2021/12/02 12:11:43;;;;;;;7.43;1.00;;;;;;;6.82;43.42;97822.13;5057939;28;20035;-93
2021/12/02 12:14:13;;;;;;;4.20;0.75;;;;;;;6.98;43.19;97815.91;5054871;28;20032;-94
2021/12/02 12:16:45;;;;;;;4.78;1.13;;;;;;;6.67;43.58;97817.94;5062413;28;20484;-94
2021/12/02 13:00:06;;;;;;;5.82;1.10;;;;;;;6.74;40.59;97876.59;3993830;25;20055;-94
2021/12/02 13:02:36;;;;;;;5.78;1.10;;;;;;;6.29;40.83;97876.91;4663902;30;20137;-92
2021/12/02 13:05:06;;;;;;;5.93;1.25;;;;;;;6.21;41.34;97870.03;4656008;30;20719;-93
2021/12/02 13:07:35;;;;;;;7.78;1.45;;;;;;;7.04;40.31;97856.44;4642861;30;20054;-93
2021/12/02 13:10:29;;;;;;;5.47;1.20;;;;;;;7.09;40.95;97872.00;4652061;30;20034;-93
2021/12/02 13:13:01;;;;;;;5.22;0.93;;;;;;;7.03;41.26;97878.09;4668431;30;20042;-93
2021/12/02 13:15:34;;;;;;;6.88;1.13;;;;;;;6.97;41.43;97867.75;4657544;30;20043;-93
2021/12/02 13:18:22;;;;;;;7.13;1.10;;;;;;;6.44;41.92;97875.97;4657740;30;20046;-94